createdAt,value
2019-01-30T00:01:09.690Z,56.17
2019-01-30T00:03:40.774Z,53.13
2019-01-30T00:06:11.882Z,49.37
2019-01-30T00:08:42.987Z,53.13
2019-01-30T00:11:14.058Z,51.03
2019-01-30T00:13:45.163Z,50.33
2019-01-30T00:16:17.345Z,52.27
2019-01-30T00:18:48.526Z,52.97
2019-01-30T00:21:19.705Z,51.67
2019-01-30T00:23:50.803Z,53.27
2019-01-30T00:26:22.014Z,51.60
2019-01-30T00:28:53.120Z,49.60
2019-01-30T00:31:24.256Z,48.67
2019-01-30T00:33:55.296Z,47.93
2019-01-30T00:36:26.432Z,47.63
2019-01-30T00:38:57.533Z,46.87
2019-01-30T00:41:28.670Z,47.33
2019-01-30T00:43:59.754Z,47.57
2019-01-30T00:46:30.959Z,39.43
2019-01-30T00:49:02.109Z,42.27
2019-01-30T00:51:37.091Z,41.10
2019-01-30T00:54:18.742Z,48.20
2019-01-30T00:56:54.982Z,45.67
2019-01-30T00:59:26.087Z,47.20
2019-01-30T01:01:57.186Z,46.10
2019-01-30T01:04:28.400Z,47.10
2019-01-30T01:06:59.657Z,49.83
2019-01-30T01:09:30.764Z,50.97
2019-01-30T01:12:01.990Z,50.97
2019-01-30T01:14:34.127Z,48.43
2019-01-30T01:17:05.690Z,45.90
2019-01-30T01:19:36.768Z,48.10
2019-01-30T01:22:07.869Z,45.60
2019-01-30T01:24:39.003Z,46.00
2019-01-30T01:27:10.059Z,46.07
2019-01-30T01:29:41.305Z,46.00
2019-01-30T01:32:12.398Z,46.73
2019-01-30T01:34:43.460Z,50.03
2019-01-30T01:37:14.568Z,47.87
2019-01-30T01:39:45.670Z,45.37
2019-01-30T01:42:16.857Z,42.13
2019-01-30T01:44:48.012Z,43.63
2019-01-30T01:47:19.155Z,41.20
2019-01-30T01:49:50.354Z,45.60
2019-01-30T01:52:21.654Z,43.63
2019-01-30T01:54:52.744Z,46.17
2019-01-30T01:57:23.839Z,40.57
2019-01-30T01:59:54.956Z,42.77
2019-01-30T02:02:26.067Z,39.73
2019-01-30T02:04:57.280Z,41.00
2019-01-30T02:07:28.418Z,38.33
2019-01-30T02:09:59.520Z,39.00
2019-01-30T02:12:30.597Z,39.53
2019-01-30T02:15:01.696Z,39.23
2019-01-30T02:17:32.767Z,39.30
2019-01-30T02:20:04.737Z,36.63
2019-01-30T02:22:35.802Z,37.47
2019-01-30T02:25:08.506Z,37.63
2019-01-30T02:27:39.677Z,41.43
2019-01-30T02:30:14.515Z,41.63
2019-01-30T02:32:45.674Z,36.60
2019-01-30T02:35:16.826Z,38.23
2019-01-30T02:37:47.889Z,38.10
2019-01-30T02:40:19.785Z,37.60
2019-01-30T02:42:50.862Z,39.60
2019-01-30T02:45:23.763Z,40.07
2019-01-30T02:47:55.843Z,45.10
2019-01-30T02:50:26.863Z,42.43
2019-01-30T02:52:57.945Z,48.23
2019-01-30T02:55:28.979Z,43.63
2019-01-30T03:04:24.197Z,44.43
2019-01-30T03:06:55.236Z,46.30
2019-01-30T03:09:26.324Z,43.47
2019-01-30T03:11:57.406Z,46.80
2019-01-30T03:14:28.493Z,43.13
2019-01-30T03:16:59.530Z,44.97
2019-01-30T03:19:30.572Z,45.33
2019-01-30T03:22:01.741Z,47.73
2019-01-30T03:24:32.848Z,46.77
2019-01-30T03:27:03.969Z,50.13
2019-01-30T03:29:35.019Z,48.93
2019-01-30T03:32:06.226Z,49.17
2019-01-30T03:34:37.279Z,48.60
2019-01-30T03:37:08.470Z,49.03
2019-01-30T03:39:39.508Z,47.13
2019-01-30T03:42:10.678Z,51.50
2019-01-30T03:44:41.697Z,50.73
2019-01-30T03:47:12.763Z,45.97
2019-01-30T03:49:44.033Z,50.73
2019-01-30T03:52:15.147Z,52.70
2019-01-30T03:54:46.374Z,51.83
2019-01-30T03:57:17.414Z,48.53
2019-01-30T03:59:48.487Z,53.50
2019-01-30T04:02:19.528Z,52.07
2019-01-30T04:04:50.616Z,51.30
2019-01-30T04:07:21.661Z,50.17
2019-01-30T04:09:52.715Z,53.80
2019-01-30T04:12:23.791Z,52.63
2019-01-30T04:14:54.841Z,50.53
2019-01-30T04:17:25.989Z,51.77
2019-01-30T04:19:57.025Z,48.77
2019-01-30T04:22:28.116Z,50.87
2019-01-30T04:24:59.188Z,49.47
2019-01-30T04:27:30.258Z,49.67
2019-01-30T04:30:01.366Z,54.17
2019-01-30T04:32:32.515Z,52.17
2019-01-30T04:35:03.773Z,48.57
2019-01-30T04:37:34.836Z,49.03
2019-01-30T04:40:07.804Z,46.77
2019-01-30T04:42:38.892Z,50.33
2019-01-30T04:45:12.312Z,46.37
2019-01-30T04:47:43.367Z,47.50
2019-01-30T04:50:14.629Z,52.13
2019-01-30T04:52:45.684Z,49.80
2019-01-30T04:55:17.530Z,51.83
2019-01-30T04:57:48.586Z,49.40
2019-01-30T05:00:24.307Z,50.80
2019-01-30T05:02:55.367Z,49.70
2019-01-30T05:05:26.437Z,51.13
2019-01-30T05:07:57.495Z,49.77
2019-01-30T05:10:28.612Z,45.87
2019-01-30T05:12:59.656Z,50.57
2019-01-30T05:15:30.748Z,46.33
2019-01-30T05:18:01.787Z,50.80
2019-01-30T05:20:32.883Z,50.93
2019-01-30T05:23:03.935Z,47.80
2019-01-30T05:25:35.058Z,49.33
2019-01-30T05:28:07.189Z,52.60
2019-01-30T05:30:38.416Z,51.60
2019-01-30T05:33:09.471Z,52.20
2019-01-30T05:35:40.551Z,48.40
2019-01-30T05:38:11.606Z,51.33
2019-01-30T05:40:42.708Z,52.43
2019-01-30T05:43:13.788Z,50.67
2019-01-30T05:45:44.906Z,50.50
2019-01-30T05:48:15.967Z,48.73
2019-01-30T05:50:47.066Z,48.57
2019-01-30T05:53:18.139Z,47.97
2019-01-30T05:55:49.303Z,45.17
2019-01-30T05:58:20.330Z,46.60
2019-01-30T06:00:51.446Z,43.27
2019-01-30T06:03:22.500Z,42.67
2019-01-30T06:05:53.622Z,42.70
2019-01-30T06:08:24.703Z,42.70
2019-01-30T06:10:55.804Z,42.47
2019-01-30T06:13:26.937Z,41.20
2019-01-30T06:15:57.987Z,40.47
2019-01-30T06:18:29.138Z,43.00
2019-01-30T06:21:00.266Z,42.53
2019-01-30T06:23:32.449Z,43.10
2019-01-30T06:26:03.669Z,40.27
2019-01-30T06:28:34.828Z,40.77
2019-01-30T06:31:05.970Z,38.37
2019-01-30T06:33:37.290Z,40.40
2019-01-30T06:36:08.427Z,42.17
2019-01-30T06:38:39.567Z,44.83
2019-01-30T06:41:10.726Z,45.83
2019-01-30T06:43:41.828Z,46.87
2019-01-30T06:46:12.990Z,45.23
2019-01-30T06:48:44.156Z,44.00
2019-01-30T06:51:15.202Z,42.00
2019-01-30T06:53:46.323Z,42.43
2019-01-30T06:56:17.418Z,40.60
2019-01-30T06:58:48.532Z,39.83
2019-01-30T07:01:19.751Z,43.30
2019-01-30T07:03:50.938Z,41.83
2019-01-30T07:06:21.993Z,42.20
2019-01-30T07:08:53.172Z,42.73
2019-01-30T07:11:24.215Z,43.23
2019-01-30T07:13:55.283Z,40.83
2019-01-30T07:16:26.442Z,38.20
2019-01-30T07:18:57.473Z,42.40
2019-01-30T07:21:28.531Z,41.83
2019-01-30T07:23:59.565Z,41.90
2019-01-30T07:26:30.628Z,41.47
2019-01-30T07:29:01.707Z,40.83
2019-01-30T07:31:32.925Z,42.83
2019-01-30T07:34:04.068Z,39.67
2019-01-30T07:36:35.119Z,40.53
2019-01-30T07:39:09.592Z,40.10
2019-01-30T07:41:40.651Z,41.63
2019-01-30T07:44:11.776Z,42.67
2019-01-30T07:46:42.909Z,42.30
2019-01-30T07:49:14.084Z,39.90
2019-01-30T07:51:45.175Z,41.50
2019-01-30T07:54:16.366Z,40.13
2019-01-30T07:56:47.611Z,42.53
2019-01-30T07:59:18.925Z,40.07
2019-01-30T08:01:50.073Z,38.47
2019-01-30T08:04:21.275Z,34.13
2019-01-30T08:06:52.450Z,32.77
2019-01-30T08:09:23.625Z,36.80
2019-01-30T08:11:54.807Z,32.60
2019-01-30T08:17:15.147Z,31.87
2019-01-30T08:19:46.543Z,33.33
2019-01-30T08:22:17.901Z,30.57
2019-01-30T08:24:49.213Z,30.07
2019-01-30T08:27:20.764Z,29.73
2019-01-30T08:29:52.802Z,28.57
2019-01-30T08:32:24.633Z,29.17
2019-01-30T08:34:55.873Z,28.27
2019-01-30T08:37:27.301Z,30.40
2019-01-30T08:39:58.518Z,29.70
2019-01-30T08:42:29.685Z,28.13
2019-01-30T08:45:01.142Z,29.80
2019-01-30T08:47:32.381Z,30.90
2019-01-30T08:50:04.663Z,32.30
2019-01-30T08:52:35.767Z,29.33
2019-01-30T08:55:07.404Z,26.83
2019-01-30T08:57:39.234Z,26.60
2019-01-30T09:00:13.901Z,25.07
2019-01-30T09:02:45.331Z,26.07
2019-01-30T09:05:17.160Z,23.87
2019-01-30T09:07:48.355Z,20.97
2019-01-30T09:10:21.107Z,21.87
2019-01-30T09:12:52.287Z,21.57
2019-01-30T09:15:24.527Z,21.77
2019-01-30T09:17:55.722Z,22.80
2019-01-30T09:20:26.924Z,20.80
2019-01-30T09:22:57.970Z,19.03
2019-01-30T09:25:30.487Z,18.77
2019-01-30T09:28:02.361Z,18.40
2019-01-30T09:30:38.417Z,16.93
2019-01-30T09:33:11.357Z,17.43
2019-01-30T09:35:42.516Z,16.73
2019-01-30T09:38:13.820Z,14.83
2019-01-30T09:40:45.014Z,16.53
2019-01-30T09:43:16.254Z,15.37
2019-01-30T09:45:47.304Z,16.73
2019-01-30T09:48:18.452Z,15.50
2019-01-30T09:50:49.683Z,15.83
2019-01-30T09:53:20.870Z,18.57
2019-01-30T09:55:52.003Z,16.47
2019-01-30T09:58:24.001Z,16.43
2019-01-30T10:00:55.322Z,17.73
2019-01-30T10:03:35.703Z,15.47
2019-01-30T10:05:59.413Z,16.37
2019-01-30T10:08:30.623Z,16.03
2019-01-30T10:11:01.913Z,15.40
2019-01-30T10:13:33.116Z,16.10
2019-01-30T10:16:04.589Z,14.90
2019-01-30T10:18:35.734Z,16.43
2019-01-30T10:21:06.971Z,16.43
2019-01-30T10:23:38.254Z,15.50
2019-01-30T10:26:09.860Z,17.03
2019-01-30T10:28:40.942Z,15.87
2019-01-30T10:31:12.226Z,16.97
2019-01-30T10:33:46.480Z,15.53
2019-01-30T10:36:16.062Z,18.63
2019-01-30T10:38:47.210Z,17.27
2019-01-30T10:41:18.428Z,18.73
2019-01-30T10:43:49.526Z,18.07
2019-01-30T10:46:20.722Z,18.47
2019-01-30T10:48:51.771Z,18.80
2019-01-30T10:51:22.905Z,19.67
2019-01-30T10:53:54.069Z,19.83
2019-01-30T10:56:25.239Z,18.83
2019-01-30T10:58:56.404Z,19.97
2019-01-30T11:01:27.544Z,20.33
2019-01-30T11:03:58.634Z,19.70
2019-01-30T11:06:29.735Z,21.07
2019-01-30T11:09:00.843Z,21.67
2019-01-30T11:11:33.732Z,22.10
2019-01-30T11:14:04.934Z,20.53
2019-01-30T11:16:36.093Z,21.13
2019-01-30T11:19:07.365Z,21.20
2019-01-30T11:21:38.454Z,21.37
2019-01-30T11:24:09.562Z,21.07
2019-01-30T11:26:40.698Z,21.37
2019-01-30T11:29:11.905Z,22.60
2019-01-30T11:31:42.985Z,20.93
2019-01-30T11:34:14.111Z,20.80
2019-01-30T11:36:45.220Z,20.97
2019-01-30T11:39:16.274Z,21.37
2019-01-30T11:41:47.421Z,21.20
2019-01-30T11:44:18.513Z,21.43
2019-01-30T11:46:49.865Z,21.37
2019-01-30T11:49:21.016Z,21.23
2019-01-30T11:51:52.199Z,21.57
2019-01-30T11:54:23.364Z,21.30
2019-01-30T11:56:54.470Z,21.63
2019-01-30T11:59:25.621Z,21.10
2019-01-30T12:01:56.725Z,22.00
2019-01-30T12:04:27.804Z,23.50
2019-01-30T12:06:58.965Z,22.73
2019-01-30T12:09:30.018Z,22.03
2019-01-30T12:12:02.251Z,21.20
2019-01-30T12:14:33.332Z,23.27
2019-01-30T12:17:04.583Z,22.90
2019-01-30T12:19:35.726Z,22.40
2019-01-30T12:22:07.042Z,22.10
2019-01-30T12:24:38.283Z,22.33
2019-01-30T12:27:09.444Z,22.37
2019-01-30T12:29:40.630Z,20.53
2019-01-30T12:32:11.861Z,22.17
2019-01-30T12:34:42.928Z,23.63
2019-01-30T12:37:14.085Z,21.27
2019-01-30T12:39:45.224Z,22.00
2019-01-30T12:42:16.496Z,22.80
2019-01-30T12:44:47.837Z,22.53
2019-01-30T12:47:19.963Z,22.97
2019-01-30T12:49:51.531Z,20.80
2019-01-30T12:52:22.732Z,21.20
2019-01-30T12:54:53.954Z,22.87
2019-01-30T12:57:25.062Z,20.60
2019-01-30T12:59:56.241Z,21.97
2019-01-30T13:02:27.368Z,21.67
2019-01-30T13:04:58.461Z,21.50
2019-01-30T13:07:29.565Z,21.97
2019-01-30T13:10:00.666Z,21.83
2019-01-30T13:12:31.734Z,21.10
2019-01-30T13:15:02.838Z,21.87
2019-01-30T13:17:33.941Z,24.07
2019-01-30T13:20:06.540Z,21.07
2019-01-30T13:22:37.630Z,21.77
2019-01-30T13:25:08.995Z,21.30
2019-01-30T13:27:40.269Z,22.83
2019-01-30T13:30:15.453Z,22.17
2019-01-30T13:32:46.687Z,21.27
2019-01-30T13:35:17.871Z,22.13
2019-01-30T13:37:49.158Z,22.13
2019-01-30T13:40:28.706Z,20.90
2019-01-30T13:42:59.935Z,21.13
2019-01-30T13:45:31.917Z,21.13
2019-01-30T13:48:05.387Z,25.77
2019-01-30T13:50:36.542Z,22.50
2019-01-30T13:53:08.348Z,21.83
2019-01-30T13:55:39.610Z,23.17
2019-01-30T13:58:11.326Z,24.70
2019-01-30T14:00:42.571Z,22.57
2019-01-30T14:03:13.687Z,22.90
2019-01-30T14:05:45.278Z,21.07
2019-01-30T14:08:16.953Z,22.10
2019-01-30T14:10:48.329Z,22.57
2019-01-30T14:13:20.259Z,23.70
2019-01-30T14:15:51.626Z,24.83
2019-01-30T14:18:22.859Z,24.57
2019-01-30T14:20:53.985Z,23.50
2019-01-30T14:23:25.225Z,24.43
2019-01-30T14:25:56.419Z,25.27
2019-01-30T14:28:27.811Z,25.40
2019-01-30T14:31:00.911Z,24.60
2019-01-30T14:33:32.213Z,25.20
2019-01-30T14:36:03.436Z,27.33
2019-01-30T14:38:34.637Z,26.70
2019-01-30T14:41:05.815Z,25.70
2019-01-30T14:43:36.990Z,26.20
2019-01-30T14:46:08.110Z,26.37
2019-01-30T14:48:39.397Z,26.97
2019-01-30T14:51:10.556Z,25.70
2019-01-30T14:53:42.367Z,25.50
2019-01-30T14:56:13.711Z,27.53
2019-01-30T14:58:44.919Z,26.23
2019-01-30T15:01:16.086Z,26.53
2019-01-30T15:03:47.592Z,28.63
2019-01-30T15:06:18.758Z,29.10
2019-01-30T15:08:50.236Z,28.33
2019-01-30T15:11:21.592Z,29.87
2019-01-30T15:13:52.819Z,28.93
2019-01-30T15:16:24.130Z,28.37
2019-01-30T15:18:55.460Z,29.60
2019-01-30T15:21:26.708Z,29.17
2019-01-30T15:23:58.011Z,28.90
2019-01-30T15:26:29.084Z,28.27
2019-01-30T15:29:00.193Z,29.27
2019-01-30T15:31:31.282Z,31.93
2019-01-30T15:34:02.407Z,32.13
2019-01-30T15:36:33.637Z,30.50
2019-01-30T15:39:08.366Z,29.50
2019-01-30T15:41:39.608Z,30.53
2019-01-30T15:44:10.756Z,31.57
2019-01-30T15:46:41.862Z,31.33
2019-01-30T15:49:12.894Z,30.90
2019-01-30T15:51:44.007Z,35.30
2019-01-30T15:54:15.130Z,33.53
2019-01-30T15:56:47.485Z,31.63
2019-01-30T15:59:18.795Z,36.03
2019-01-30T16:01:50.458Z,36.50
2019-01-30T16:04:22.209Z,37.67
2019-01-30T16:06:53.353Z,40.80
2019-01-30T16:09:24.685Z,44.17
2019-01-30T16:11:55.950Z,47.93
2019-01-30T16:14:27.119Z,45.37
2019-01-30T16:16:58.383Z,49.20
2019-01-30T16:19:29.504Z,49.50
2019-01-30T16:22:00.740Z,53.27
2019-01-30T16:24:31.954Z,53.90
2019-01-30T16:27:03.295Z,56.73
2019-01-30T16:29:35.016Z,54.83
2019-01-30T16:32:06.255Z,56.20
2019-01-30T16:34:37.327Z,55.20
2019-01-30T16:37:08.509Z,54.60
2019-01-30T16:39:39.895Z,57.60
2019-01-30T16:42:11.324Z,53.13
2019-01-30T16:44:43.457Z,54.53
2019-01-30T16:47:15.391Z,54.73
2019-01-30T16:49:46.891Z,56.63
2019-01-30T16:52:18.013Z,58.77
2019-01-30T16:54:49.355Z,61.03
2019-01-30T16:57:20.675Z,59.83
2019-01-30T16:59:51.859Z,56.93
2019-01-30T17:02:23.139Z,59.53
2019-01-30T17:04:54.479Z,60.70
2019-01-30T17:07:25.717Z,55.80
2019-01-30T17:09:57.029Z,56.27
2019-01-30T17:12:28.150Z,53.83
2019-01-30T17:14:59.317Z,52.70
2019-01-30T17:17:30.457Z,50.43
2019-01-30T17:20:01.716Z,50.10
2019-01-30T17:22:33.151Z,50.13
2019-01-30T17:25:05.400Z,48.47
2019-01-30T17:27:36.636Z,48.67
2019-01-30T17:30:11.848Z,52.13
2019-01-30T17:32:42.985Z,52.10
2019-01-30T17:35:14.815Z,49.40
2019-01-30T17:37:46.004Z,52.40
2019-01-30T17:40:19.080Z,53.40
2019-01-30T17:42:50.298Z,51.13
2019-01-30T17:45:21.661Z,53.73
2019-01-30T17:47:53.058Z,50.33
2019-01-30T17:50:25.234Z,50.50
2019-01-30T17:52:56.443Z,49.03
2019-01-30T17:55:27.536Z,53.57
2019-01-30T17:57:58.882Z,51.60
2019-01-30T18:00:51.438Z,51.37
2019-01-30T18:03:22.709Z,52.33
2019-01-30T18:05:53.900Z,54.60
2019-01-30T18:08:25.044Z,53.23
2019-01-30T18:10:56.120Z,57.33
2019-01-30T18:13:27.331Z,55.97
2019-01-30T18:15:58.526Z,56.33
2019-01-30T18:18:29.667Z,57.33
2019-01-30T18:21:01.076Z,57.90
2019-01-30T18:24:17.647Z,56.20
2019-01-30T18:26:49.257Z,56.33
2019-01-30T18:29:26.153Z,54.20
2019-01-30T18:31:58.659Z,56.13
2019-01-30T18:34:29.877Z,57.60
2019-01-30T18:37:01.289Z,59.87
2019-01-30T18:39:42.714Z,59.13
2019-01-30T18:42:14.060Z,59.90
2019-01-30T18:44:45.347Z,61.53
2019-01-30T18:47:23.861Z,65.13
2019-01-30T18:49:55.934Z,64.87
2019-01-30T18:52:27.203Z,65.80
2019-01-30T18:54:59.325Z,66.00
2019-01-30T18:57:43.576Z,63.50
2019-01-30T19:00:28.007Z,63.87
2019-01-30T19:03:03.213Z,61.97
2019-01-30T19:05:35.802Z,59.27
2019-01-30T19:08:08.844Z,61.40
2019-01-30T19:10:40.880Z,60.70
2019-01-30T19:13:15.292Z,63.57
2019-01-30T19:15:47.292Z,63.53
2019-01-30T19:18:37.367Z,64.17
2019-01-30T19:21:08.585Z,62.37
2019-01-30T19:23:39.832Z,62.03
2019-01-30T19:26:11.150Z,64.67
2019-01-30T19:28:42.997Z,67.13
2019-01-30T19:31:14.255Z,61.70
2019-01-30T19:33:45.412Z,65.27
2019-01-30T19:36:16.546Z,62.73
2019-01-30T19:38:48.176Z,63.03
2019-01-30T19:41:20.088Z,62.73
2019-01-30T19:43:51.356Z,64.63
2019-01-30T19:46:33.901Z,60.47
2019-01-30T19:49:05.105Z,63.40
2019-01-30T19:51:36.310Z,58.97
2019-01-30T19:54:07.449Z,64.70
2019-01-30T19:56:38.707Z,63.70
2019-01-30T19:59:17.420Z,61.47
2019-01-30T20:01:42.901Z,59.57
2019-01-30T20:04:14.207Z,63.03
2019-01-30T20:06:45.889Z,64.57
2019-01-30T20:09:18.523Z,63.70
2019-01-30T20:11:49.939Z,57.97
2019-01-30T20:14:21.565Z,57.97
2019-01-30T20:16:52.807Z,61.87
2019-01-30T20:19:24.174Z,65.50
2019-01-30T20:21:55.427Z,63.33
2019-01-30T20:24:27.703Z,62.53
2019-01-30T20:26:58.958Z,60.17
2019-01-30T20:29:30.107Z,63.73
2019-01-30T20:32:01.380Z,65.83
2019-01-30T20:34:32.840Z,60.50
2019-01-30T20:37:04.002Z,61.03
2019-01-30T20:39:35.160Z,63.97
2019-01-30T20:42:06.874Z,62.63
2019-01-30T20:44:38.086Z,62.60
2019-01-30T20:47:10.699Z,70.90
2019-01-30T20:49:41.997Z,63.87
2019-01-30T20:52:13.239Z,61.03
2019-01-30T20:54:44.329Z,61.03
2019-01-30T20:57:15.772Z,61.20
2019-01-30T20:59:46.944Z,62.90
2019-01-30T21:02:18.136Z,61.73
2019-01-30T21:04:49.243Z,64.30
2019-01-30T21:07:20.440Z,66.03
2019-01-30T21:09:51.629Z,58.53
2019-01-30T21:12:22.739Z,61.93
2019-01-30T21:14:54.044Z,63.07
2019-01-30T21:17:25.285Z,59.87
2019-01-30T21:19:56.458Z,67.17
2019-01-30T21:22:28.196Z,65.43
2019-01-30T21:24:59.313Z,67.97
2019-01-30T21:27:30.455Z,69.63
2019-01-30T21:30:01.681Z,72.07
2019-01-30T21:32:33.900Z,89.53
2019-01-30T21:35:05.900Z,85.13
2019-01-30T21:37:48.357Z,78.57
2019-01-30T21:40:12.092Z,73.23
2019-01-30T21:42:43.237Z,72.33
2019-01-30T21:45:17.133Z,73.03
2019-01-30T21:47:48.436Z,72.40
2019-01-30T21:50:19.819Z,65.33
2019-01-30T21:52:51.021Z,64.27
2019-01-30T21:55:23.873Z,67.60
2019-01-30T21:57:55.085Z,64.10
2019-01-30T22:00:28.578Z,64.93
2019-01-30T22:03:00.007Z,65.37
2019-01-30T22:05:31.211Z,61.83
2019-01-30T22:08:02.341Z,72.33
2019-01-30T22:10:34.605Z,68.93
2019-01-30T22:13:06.241Z,65.03
2019-01-30T22:15:37.597Z,66.33
2019-01-30T22:18:09.003Z,73.80
2019-01-30T22:20:40.126Z,67.93
2019-01-30T22:23:11.569Z,63.83
2019-01-30T22:25:42.812Z,67.20
2019-01-30T22:28:14.534Z,65.20
2019-01-30T22:30:45.743Z,64.00
2019-01-30T22:33:17.575Z,61.87
2019-01-30T22:35:49.142Z,70.30
2019-01-30T22:38:20.407Z,63.47
2019-01-30T22:40:51.832Z,68.13
2019-01-30T22:43:22.912Z,69.70
2019-01-30T22:45:54.337Z,68.80
2019-01-30T22:48:25.580Z,66.90
2019-01-30T22:50:56.759Z,73.20
2019-01-30T22:53:27.819Z,75.63
2019-01-30T22:55:59.000Z,64.83
2019-01-30T22:58:30.350Z,65.97
2019-01-30T23:01:31.107Z,72.67
2019-01-30T23:04:42.711Z,68.17
2019-01-30T23:07:53.367Z,61.40
2019-01-30T23:11:16.314Z,64.10
2019-01-30T23:14:10.319Z,70.27
2019-01-30T23:17:11.642Z,68.40
2019-01-30T23:19:54.404Z,65.03
2019-01-30T23:22:59.096Z,67.00
2019-01-30T23:25:52.047Z,71.50
2019-01-30T23:29:15.133Z,64.83
2019-01-30T23:32:32.405Z,68.67
2019-01-30T23:35:31.909Z,63.27
2019-01-30T23:38:40.285Z,59.57
2019-01-30T23:41:29.418Z,69.40
2019-01-30T23:44:56.808Z,58.90
2019-01-30T23:48:20.210Z,59.17
2019-01-30T23:51:23.599Z,66.07
2019-01-30T23:54:34.630Z,65.63
2019-01-30T23:57:26.286Z,61.83
